sensor_id;sensor_type;location;lat;lon;timestamp;P1;durP1;ratioP1;P2;durP2;ratioP2
55150;SDS011;41041;43.162;20.538;2023-06-14T00:02:16;11.85;;;8.70;;
55150;SDS011;41041;43.162;20.538;2023-06-14T00:04:42;11.50;;;8.43;;
55150;SDS011;41041;43.162;20.538;2023-06-14T00:07:08;10.68;;;9.25;;
55150;SDS011;41041;43.162;20.538;2023-06-14T00:09:35;11.30;;;8.65;;
55150;SDS011;41041;43.162;20.538;2023-06-14T00:14:46;12.73;;;10.57;;
55150;SDS011;41041;43.162;20.538;2023-06-14T00:17:12;12.48;;;10.45;;
55150;SDS011;41041;43.162;20.538;2023-06-14T00:19:41;12.38;;;9.60;;
55150;SDS011;41041;43.162;20.538;2023-06-14T00:22:14;13.48;;;9.52;;
55150;SDS011;41041;43.162;20.538;2023-06-14T00:24:40;12.20;;;9.73;;
55150;SDS011;41041;43.162;20.538;2023-06-14T00:27:06;11.23;;;9.88;;
55150;SDS011;41041;43.162;20.538;2023-06-14T00:29:32;10.73;;;9.63;;
55150;SDS011;41041;43.162;20.538;2023-06-14T00:31:58;11.40;;;10.07;;
55150;SDS011;41041;43.162;20.538;2023-06-14T00:34:24;12.75;;;9.63;;
55150;SDS011;41041;43.162;20.538;2023-06-14T00:36:50;15.25;;;10.95;;
55150;SDS011;41041;43.162;20.538;2023-06-14T00:39:16;16.63;;;10.10;;
55150;SDS011;41041;43.162;20.538;2023-06-14T00:41:43;15.73;;;9.73;;
55150;SDS011;41041;43.162;20.538;2023-06-14T00:44:09;12.60;;;9.80;;
55150;SDS011;41041;43.162;20.538;2023-06-14T00:46:35;14.30;;;8.70;;
55150;SDS011;41041;43.162;20.538;2023-06-14T00:49:01;12.45;;;8.23;;
55150;SDS011;41041;43.162;20.538;2023-06-14T00:51:27;11.05;;;7.25;;
55150;SDS011;41041;43.162;20.538;2023-06-14T00:53:53;8.63;;;7.22;;
55150;SDS011;41041;43.162;20.538;2023-06-14T00:56:20;10.27;;;6.82;;
55150;SDS011;41041;43.162;20.538;2023-06-14T00:58:46;10.48;;;6.65;;
55150;SDS011;41041;43.162;20.538;2023-06-14T01:01:12;10.38;;;6.75;;
55150;SDS011;41041;43.162;20.538;2023-06-14T01:03:41;8.23;;;6.47;;
55150;SDS011;41041;43.162;20.538;2023-06-14T01:08:57;12.43;;;7.05;;
55150;SDS011;41041;43.162;20.538;2023-06-14T01:11:27;12.02;;;6.63;;
55150;SDS011;41041;43.162;20.538;2023-06-14T01:13:54;11.50;;;6.50;;
55150;SDS011;41041;43.162;20.538;2023-06-14T01:16:22;10.60;;;6.57;;
55150;SDS011;41041;43.162;20.538;2023-06-14T01:18:48;9.65;;;6.57;;
55150;SDS011;41041;43.162;20.538;2023-06-14T01:21:22;9.20;;;6.65;;
55150;SDS011;41041;43.162;20.538;2023-06-14T01:23:48;9.40;;;7.72;;
55150;SDS011;41041;43.162;20.538;2023-06-14T01:26:27;13.93;;;8.30;;
55150;SDS011;41041;43.162;20.538;2023-06-14T01:28:54;15.73;;;8.63;;
55150;SDS011;41041;43.162;20.538;2023-06-14T01:31:29;9.88;;;7.90;;
55150;SDS011;41041;43.162;20.538;2023-06-14T01:34:06;11.65;;;8.25;;
55150;SDS011;41041;43.162;20.538;2023-06-14T01:36:32;10.02;;;8.10;;
55150;SDS011;41041;43.162;20.538;2023-06-14T01:38:58;10.32;;;7.78;;
55150;SDS011;41041;43.162;20.538;2023-06-14T01:41:25;15.05;;;8.57;;
55150;SDS011;41041;43.162;20.538;2023-06-14T01:43:51;10.30;;;8.73;;
55150;SDS011;41041;43.162;20.538;2023-06-14T01:46:18;10.40;;;8.43;;
55150;SDS011;41041;43.162;20.538;2023-06-14T01:48:45;11.82;;;8.40;;
55150;SDS011;41041;43.162;20.538;2023-06-14T01:51:11;11.15;;;8.82;;
55150;SDS011;41041;43.162;20.538;2023-06-14T01:53:37;13.70;;;8.60;;
55150;SDS011;41041;43.162;20.538;2023-06-14T01:56:03;11.60;;;8.90;;
55150;SDS011;41041;43.162;20.538;2023-06-14T01:58:29;13.63;;;8.15;;
55150;SDS011;41041;43.162;20.538;2023-06-14T02:00:59;11.88;;;7.75;;
55150;SDS011;41041;43.162;20.538;2023-06-14T02:03:25;11.05;;;7.50;;
55150;SDS011;41041;43.162;20.538;2023-06-14T02:05:52;8.82;;;7.43;;
55150;SDS011;41041;43.162;20.538;2023-06-14T02:10:48;12.18;;;7.63;;
55150;SDS011;41041;43.162;20.538;2023-06-14T02:13:14;9.23;;;7.63;;
55150;SDS011;41041;43.162;20.538;2023-06-14T02:18:11;10.07;;;6.93;;
55150;SDS011;41041;43.162;20.538;2023-06-14T02:20:38;10.07;;;6.93;;
55150;SDS011;41041;43.162;20.538;2023-06-14T02:23:04;12.50;;;7.53;;
55150;SDS011;41041;43.162;20.538;2023-06-14T02:25:33;9.35;;;7.03;;
55150;SDS011;41041;43.162;20.538;2023-06-14T02:27:59;9.52;;;6.50;;
55150;SDS011;41041;43.162;20.538;2023-06-14T02:30:25;11.15;;;7.43;;
55150;SDS011;41041;43.162;20.538;2023-06-14T02:32:51;8.70;;;6.95;;
55150;SDS011;41041;43.162;20.538;2023-06-14T02:35:18;10.65;;;7.70;;
55150;SDS011;41041;43.162;20.538;2023-06-14T02:37:45;10.75;;;7.40;;
55150;SDS011;41041;43.162;20.538;2023-06-14T02:40:11;10.18;;;7.85;;
55150;SDS011;41041;43.162;20.538;2023-06-14T02:42:38;10.35;;;7.40;;
55150;SDS011;41041;43.162;20.538;2023-06-14T02:45:04;10.65;;;7.82;;
55150;SDS011;41041;43.162;20.538;2023-06-14T02:47:30;9.13;;;7.40;;
55150;SDS011;41041;43.162;20.538;2023-06-14T02:49:58;12.25;;;7.53;;
55150;SDS011;41041;43.162;20.538;2023-06-14T02:52:24;9.55;;;7.20;;
55150;SDS011;41041;43.162;20.538;2023-06-14T02:54:50;10.13;;;7.63;;
55150;SDS011;41041;43.162;20.538;2023-06-14T02:57:17;7.88;;;7.07;;
55150;SDS011;41041;43.162;20.538;2023-06-14T02:59:51;11.20;;;7.75;;
55150;SDS011;41041;43.162;20.538;2023-06-14T03:02:17;10.32;;;7.75;;
55150;SDS011;41041;43.162;20.538;2023-06-14T03:04:43;11.90;;;7.68;;
55150;SDS011;41041;43.162;20.538;2023-06-14T03:07:12;11.80;;;7.88;;
55150;SDS011;41041;43.162;20.538;2023-06-14T03:09:38;10.07;;;7.60;;
55150;SDS011;41041;43.162;20.538;2023-06-14T03:12:05;11.68;;;7.80;;
55150;SDS011;41041;43.162;20.538;2023-06-14T03:14:35;13.40;;;7.82;;
55150;SDS011;41041;43.162;20.538;2023-06-14T03:17:01;11.30;;;7.97;;
55150;SDS011;41041;43.162;20.538;2023-06-14T03:19:29;11.48;;;7.65;;
55150;SDS011;41041;43.162;20.538;2023-06-14T03:21:56;11.43;;;8.05;;
55150;SDS011;41041;43.162;20.538;2023-06-14T03:24:23;10.20;;;7.53;;
55150;SDS011;41041;43.162;20.538;2023-06-14T03:26:49;10.65;;;7.80;;
55150;SDS011;41041;43.162;20.538;2023-06-14T03:29:15;13.73;;;7.82;;
55150;SDS011;41041;43.162;20.538;2023-06-14T03:31:55;11.32;;;8.38;;
55150;SDS011;41041;43.162;20.538;2023-06-14T03:34:22;11.60;;;7.80;;
55150;SDS011;41041;43.162;20.538;2023-06-14T03:36:48;13.15;;;8.32;;
55150;SDS011;41041;43.162;20.538;2023-06-14T03:39:14;10.50;;;8.13;;
55150;SDS011;41041;43.162;20.538;2023-06-14T03:41:40;11.15;;;7.90;;
55150;SDS011;41041;43.162;20.538;2023-06-14T03:44:06;9.73;;;7.68;;
55150;SDS011;41041;43.162;20.538;2023-06-14T03:46:32;10.98;;;7.63;;
55150;SDS011;41041;43.162;20.538;2023-06-14T03:48:59;11.00;;;7.82;;
55150;SDS011;41041;43.162;20.538;2023-06-14T03:51:25;9.60;;;7.18;;
55150;SDS011;41041;43.162;20.538;2023-06-14T03:53:59;8.10;;;6.85;;
55150;SDS011;41041;43.162;20.538;2023-06-14T03:56:25;9.38;;;7.25;;
55150;SDS011;41041;43.162;20.538;2023-06-14T03:58:52;8.40;;;7.03;;
55150;SDS011;41041;43.162;20.538;2023-06-14T04:03:54;9.85;;;6.65;;
55150;SDS011;41041;43.162;20.538;2023-06-14T04:06:20;9.93;;;7.10;;
55150;SDS011;41041;43.162;20.538;2023-06-14T04:08:48;9.35;;;6.72;;
55150;SDS011;41041;43.162;20.538;2023-06-14T04:11:14;8.48;;;6.72;;
55150;SDS011;41041;43.162;20.538;2023-06-14T04:13:40;8.65;;;6.63;;
55150;SDS011;41041;43.162;20.538;2023-06-14T04:16:06;9.00;;;6.95;;
55150;SDS011;41041;43.162;20.538;2023-06-14T04:18:32;12.07;;;6.75;;
55150;SDS011;41041;43.162;20.538;2023-06-14T04:20:59;9.70;;;7.00;;
55150;SDS011;41041;43.162;20.538;2023-06-14T04:23:25;12.88;;;9.20;;
55150;SDS011;41041;43.162;20.538;2023-06-14T04:25:53;9.68;;;7.18;;
55150;SDS011;41041;43.162;20.538;2023-06-14T04:28:22;8.05;;;6.65;;
55150;SDS011;41041;43.162;20.538;2023-06-14T04:30:50;9.23;;;7.28;;
55150;SDS011;41041;43.162;20.538;2023-06-14T04:33:18;8.68;;;7.13;;
55150;SDS011;41041;43.162;20.538;2023-06-14T04:35:44;13.52;;;8.70;;
55150;SDS011;41041;43.162;20.538;2023-06-14T04:38:12;10.02;;;8.05;;
55150;SDS011;41041;43.162;20.538;2023-06-14T04:40:38;11.15;;;7.57;;
55150;SDS011;41041;43.162;20.538;2023-06-14T04:43:08;9.73;;;7.15;;
55150;SDS011;41041;43.162;20.538;2023-06-14T04:45:37;10.70;;;7.60;;
55150;SDS011;41041;43.162;20.538;2023-06-14T04:48:04;12.10;;;8.40;;
55150;SDS011;41041;43.162;20.538;2023-06-14T04:50:31;9.68;;;7.60;;
55150;SDS011;41041;43.162;20.538;2023-06-14T04:52:58;11.52;;;7.78;;
55150;SDS011;41041;43.162;20.538;2023-06-14T04:55:24;11.00;;;7.95;;
55150;SDS011;41041;43.162;20.538;2023-06-14T04:57:51;10.82;;;8.23;;
55150;SDS011;41041;43.162;20.538;2023-06-14T05:00:20;11.00;;;8.13;;
55150;SDS011;41041;43.162;20.538;2023-06-14T05:02:46;8.38;;;7.45;;
55150;SDS011;41041;43.162;20.538;2023-06-14T05:08:02;8.18;;;7.28;;
55150;SDS011;41041;43.162;20.538;2023-06-14T05:10:28;14.98;;;7.22;;
55150;SDS011;41041;43.162;20.538;2023-06-14T05:12:55;10.32;;;7.70;;
55150;SDS011;41041;43.162;20.538;2023-06-14T05:15:24;10.43;;;7.82;;
55150;SDS011;41041;43.162;20.538;2023-06-14T05:17:50;9.82;;;7.72;;
55150;SDS011;41041;43.162;20.538;2023-06-14T05:20:26;10.07;;;8.55;;
55150;SDS011;41041;43.162;20.538;2023-06-14T05:22:55;11.02;;;8.68;;
55150;SDS011;41041;43.162;20.538;2023-06-14T05:25:21;12.32;;;9.07;;
55150;SDS011;41041;43.162;20.538;2023-06-14T05:36:06;13.32;;;10.30;;
55150;SDS011;41041;43.162;20.538;2023-06-14T05:38:32;11.55;;;9.63;;
55150;SDS011;41041;43.162;20.538;2023-06-14T05:41:08;11.35;;;9.45;;
55150;SDS011;41041;43.162;20.538;2023-06-14T05:43:39;17.17;;;10.55;;
55150;SDS011;41041;43.162;20.538;2023-06-14T05:46:06;15.15;;;10.45;;
55150;SDS011;41041;43.162;20.538;2023-06-14T05:48:32;15.93;;;10.13;;
55150;SDS011;41041;43.162;20.538;2023-06-14T05:50:59;13.20;;;10.30;;
55150;SDS011;41041;43.162;20.538;2023-06-14T05:53:28;16.10;;;10.93;;
55150;SDS011;41041;43.162;20.538;2023-06-14T05:55:54;18.00;;;10.90;;
55150;SDS011;41041;43.162;20.538;2023-06-14T05:58:21;13.68;;;11.40;;
55150;SDS011;41041;43.162;20.538;2023-06-14T06:00:47;17.23;;;11.73;;
55150;SDS011;41041;43.162;20.538;2023-06-14T06:03:15;15.43;;;12.02;;
55150;SDS011;41041;43.162;20.538;2023-06-14T06:05:43;15.27;;;11.77;;
55150;SDS011;41041;43.162;20.538;2023-06-14T06:08:09;18.58;;;13.45;;
55150;SDS011;41041;43.162;20.538;2023-06-14T06:10:38;18.48;;;14.15;;
55150;SDS011;41041;43.162;20.538;2023-06-14T06:13:04;18.83;;;15.00;;
55150;SDS011;41041;43.162;20.538;2023-06-14T06:15:33;19.00;;;13.13;;
55150;SDS011;41041;43.162;20.538;2023-06-14T06:17:59;15.93;;;13.07;;
55150;SDS011;41041;43.162;20.538;2023-06-14T06:20:25;15.82;;;11.75;;
55150;SDS011;41041;43.162;20.538;2023-06-14T06:22:53;15.18;;;11.98;;
55150;SDS011;41041;43.162;20.538;2023-06-14T06:25:26;15.70;;;12.55;;
55150;SDS011;41041;43.162;20.538;2023-06-14T06:27:57;15.13;;;11.73;;
55150;SDS011;41041;43.162;20.538;2023-06-14T06:30:26;14.48;;;11.95;;
55150;SDS011;41041;43.162;20.538;2023-06-14T06:32:52;16.92;;;12.52;;
55150;SDS011;41041;43.162;20.538;2023-06-14T06:35:32;17.30;;;13.32;;
55150;SDS011;41041;43.162;20.538;2023-06-14T06:37:58;16.00;;;12.85;;
55150;SDS011;41041;43.162;20.538;2023-06-14T06:40:27;19.63;;;13.00;;
55150;SDS011;41041;43.162;20.538;2023-06-14T06:42:54;18.90;;;13.07;;
55150;SDS011;41041;43.162;20.538;2023-06-14T06:45:23;20.08;;;12.55;;
55150;SDS011;41041;43.162;20.538;2023-06-14T06:47:50;17.65;;;13.10;;
55150;SDS011;41041;43.162;20.538;2023-06-14T06:50:18;24.95;;;13.30;;
55150;SDS011;41041;43.162;20.538;2023-06-14T06:52:52;26.80;;;14.40;;
55150;SDS011;41041;43.162;20.538;2023-06-14T06:55:18;24.88;;;15.65;;
55150;SDS011;41041;43.162;20.538;2023-06-14T06:57:45;30.58;;;15.38;;
55150;SDS011;41041;43.162;20.538;2023-06-14T07:00:11;28.05;;;14.52;;
55150;SDS011;41041;43.162;20.538;2023-06-14T07:02:37;24.65;;;13.93;;
55150;SDS011;41041;43.162;20.538;2023-06-14T07:05:06;20.45;;;14.13;;
55150;SDS011;41041;43.162;20.538;2023-06-14T07:07:32;19.25;;;14.48;;
55150;SDS011;41041;43.162;20.538;2023-06-14T07:10:00;19.70;;;13.95;;
55150;SDS011;41041;43.162;20.538;2023-06-14T07:12:31;18.75;;;13.80;;
55150;SDS011;41041;43.162;20.538;2023-06-14T07:14:59;16.75;;;12.65;;
55150;SDS011;41041;43.162;20.538;2023-06-14T07:17:25;18.42;;;13.20;;
55150;SDS011;41041;43.162;20.538;2023-06-14T07:19:51;16.40;;;13.27;;
55150;SDS011;41041;43.162;20.538;2023-06-14T07:22:18;17.63;;;12.55;;
55150;SDS011;41041;43.162;20.538;2023-06-14T07:24:45;15.43;;;12.30;;
55150;SDS011;41041;43.162;20.538;2023-06-14T07:27:11;16.80;;;11.70;;
55150;SDS011;41041;43.162;20.538;2023-06-14T07:29:38;16.52;;;11.82;;
55150;SDS011;41041;43.162;20.538;2023-06-14T07:32:04;14.60;;;12.00;;
55150;SDS011;41041;43.162;20.538;2023-06-14T07:34:31;15.68;;;11.50;;
55150;SDS011;41041;43.162;20.538;2023-06-14T07:36:57;12.07;;;9.15;;
55150;SDS011;41041;43.162;20.538;2023-06-14T07:39:23;12.18;;;9.43;;
55150;SDS011;41041;43.162;20.538;2023-06-14T07:41:56;13.80;;;9.10;;
55150;SDS011;41041;43.162;20.538;2023-06-14T07:44:22;12.68;;;9.43;;
55150;SDS011;41041;43.162;20.538;2023-06-14T07:46:49;12.70;;;9.20;;
55150;SDS011;41041;43.162;20.538;2023-06-14T07:49:17;12.02;;;9.02;;
55150;SDS011;41041;43.162;20.538;2023-06-14T07:51:43;12.88;;;9.82;;
55150;SDS011;41041;43.162;20.538;2023-06-14T07:54:13;33.95;;;18.83;;
55150;SDS011;41041;43.162;20.538;2023-06-14T07:59:44;21.08;;;15.45;;
55150;SDS011;41041;43.162;20.538;2023-06-14T08:02:25;22.38;;;13.65;;
55150;SDS011;41041;43.162;20.538;2023-06-14T09:50:32;10.65;;;6.72;;
55150;SDS011;41041;43.162;20.538;2023-06-14T09:56:02;10.20;;;5.65;;
55150;SDS011;41041;43.162;20.538;2023-06-14T09:58:37;8.70;;;6.07;;
55150;SDS011;41041;43.162;20.538;2023-06-14T10:01:08;8.35;;;6.40;;
55150;SDS011;41041;43.162;20.538;2023-06-14T10:03:44;7.97;;;5.82;;
55150;SDS011;41041;43.162;20.538;2023-06-14T10:06:19;8.80;;;6.40;;
55150;SDS011;41041;43.162;20.538;2023-06-14T10:11:19;9.03;;;5.30;;
55150;SDS011;41041;43.162;20.538;2023-06-14T10:13:56;8.38;;;5.20;;
55150;SDS011;41041;43.162;20.538;2023-06-14T10:16:39;7.60;;;5.50;;
55150;SDS011;41041;43.162;20.538;2023-06-14T10:22:29;6.78;;;5.40;;
55150;SDS011;41041;43.162;20.538;2023-06-14T10:25:02;6.82;;;6.00;;
55150;SDS011;41041;43.162;20.538;2023-06-14T10:27:41;6.20;;;5.60;;
55150;SDS011;41041;43.162;20.538;2023-06-14T10:30:11;8.60;;;5.70;;
55150;SDS011;41041;43.162;20.538;2023-06-14T10:35:42;8.63;;;5.35;;
55150;SDS011;41041;43.162;20.538;2023-06-14T10:38:09;12.48;;;5.78;;
55150;SDS011;41041;43.162;20.538;2023-06-14T10:41:00;8.23;;;5.40;;
55150;SDS011;41041;43.162;20.538;2023-06-14T10:43:27;7.95;;;5.60;;
55150;SDS011;41041;43.162;20.538;2023-06-14T10:48:48;7.65;;;5.50;;
55150;SDS011;41041;43.162;20.538;2023-06-14T10:51:22;9.88;;;5.40;;
55150;SDS011;41041;43.162;20.538;2023-06-14T10:53:48;7.47;;;5.70;;
55150;SDS011;41041;43.162;20.538;2023-06-14T10:56:28;9.30;;;5.82;;
55150;SDS011;41041;43.162;20.538;2023-06-14T11:05:30;9.35;;;6.45;;
55150;SDS011;41041;43.162;20.538;2023-06-14T11:08:20;8.07;;;5.72;;
55150;SDS011;41041;43.162;20.538;2023-06-14T11:13:48;7.43;;;4.97;;
55150;SDS011;41041;43.162;20.538;2023-06-14T11:16:26;7.68;;;5.18;;
55150;SDS011;41041;43.162;20.538;2023-06-14T11:19:03;7.13;;;5.70;;
55150;SDS011;41041;43.162;20.538;2023-06-14T11:21:32;5.65;;;4.00;;
55150;SDS011;41041;43.162;20.538;2023-06-14T11:26:46;4.68;;;1.70;;
55150;SDS011;41041;43.162;20.538;2023-06-14T11:29:17;3.67;;;1.85;;
55150;SDS011;41041;43.162;20.538;2023-06-14T11:31:57;2.00;;;1.40;;
55150;SDS011;41041;43.162;20.538;2023-06-14T11:34:45;2.40;;;1.67;;
55150;SDS011;41041;43.162;20.538;2023-06-14T11:37:17;4.13;;;2.20;;
55150;SDS011;41041;43.162;20.538;2023-06-14T11:39:51;2.17;;;1.70;;
55150;SDS011;41041;43.162;20.538;2023-06-14T11:42:17;3.40;;;1.67;;
55150;SDS011;41041;43.162;20.538;2023-06-14T11:44:52;5.00;;;1.75;;
55150;SDS011;41041;43.162;20.538;2023-06-14T11:47:21;2.58;;;1.55;;
55150;SDS011;41041;43.162;20.538;2023-06-14T11:52:55;2.45;;;1.60;;
55150;SDS011;41041;43.162;20.538;2023-06-14T11:55:39;3.05;;;2.13;;
55150;SDS011;41041;43.162;20.538;2023-06-14T11:58:16;5.00;;;2.75;;
55150;SDS011;41041;43.162;20.538;2023-06-14T12:00:52;2.58;;;1.83;;
55150;SDS011;41041;43.162;20.538;2023-06-14T12:03:28;7.68;;;2.25;;
55150;SDS011;41041;43.162;20.538;2023-06-14T12:06:06;2.92;;;2.30;;
55150;SDS011;41041;43.162;20.538;2023-06-14T12:08:37;5.07;;;2.45;;
55150;SDS011;41041;43.162;20.538;2023-06-14T12:11:12;5.60;;;2.47;;
55150;SDS011;41041;43.162;20.538;2023-06-14T12:13:46;3.72;;;2.25;;
55150;SDS011;41041;43.162;20.538;2023-06-14T12:18:46;6.00;;;2.20;;
55150;SDS011;41041;43.162;20.538;2023-06-14T12:21:17;3.50;;;2.38;;
55150;SDS011;41041;43.162;20.538;2023-06-14T12:23:54;7.60;;;2.60;;
55150;SDS011;41041;43.162;20.538;2023-06-14T12:26:45;6.07;;;2.20;;
55150;SDS011;41041;43.162;20.538;2023-06-14T12:29:10;4.25;;;2.28;;
55150;SDS011;41041;43.162;20.538;2023-06-14T12:31:37;4.10;;;2.40;;
55150;SDS011;41041;43.162;20.538;2023-06-14T12:34:03;6.43;;;2.83;;
55150;SDS011;41041;43.162;20.538;2023-06-14T12:36:30;4.72;;;2.85;;
55150;SDS011;41041;43.162;20.538;2023-06-14T12:39:07;4.78;;;2.90;;
55150;SDS011;41041;43.162;20.538;2023-06-14T12:41:39;7.70;;;2.95;;
55150;SDS011;41041;43.162;20.538;2023-06-14T12:44:14;6.68;;;2.83;;
55150;SDS011;41041;43.162;20.538;2023-06-14T12:46:43;11.15;;;3.00;;
55150;SDS011;41041;43.162;20.538;2023-06-14T12:49:12;15.23;;;3.47;;
55150;SDS011;41041;43.162;20.538;2023-06-14T12:51:38;5.63;;;2.58;;
55150;SDS011;41041;43.162;20.538;2023-06-14T12:54:08;11.57;;;3.33;;
55150;SDS011;41041;43.162;20.538;2023-06-14T12:56:34;6.53;;;3.05;;
55150;SDS011;41041;43.162;20.538;2023-06-14T12:59:00;9.18;;;2.80;;
55150;SDS011;41041;43.162;20.538;2023-06-14T13:01:26;15.63;;;3.90;;
55150;SDS011;41041;43.162;20.538;2023-06-14T13:04:05;11.20;;;3.38;;
55150;SDS011;41041;43.162;20.538;2023-06-14T13:06:33;6.32;;;2.83;;
55150;SDS011;41041;43.162;20.538;2023-06-14T13:08:59;9.07;;;2.90;;
55150;SDS011;41041;43.162;20.538;2023-06-14T13:11:33;5.45;;;2.40;;
55150;SDS011;41041;43.162;20.538;2023-06-14T13:14:00;7.80;;;2.80;;
55150;SDS011;41041;43.162;20.538;2023-06-14T13:16:26;6.10;;;2.80;;
55150;SDS011;41041;43.162;20.538;2023-06-14T13:18:52;9.07;;;3.25;;
55150;SDS011;41041;43.162;20.538;2023-06-14T13:21:21;8.13;;;3.55;;
55150;SDS011;41041;43.162;20.538;2023-06-14T13:23:57;4.55;;;3.10;;
55150;SDS011;41041;43.162;20.538;2023-06-14T13:26:32;11.27;;;3.75;;
55150;SDS011;41041;43.162;20.538;2023-06-14T13:28:58;9.55;;;3.78;;
55150;SDS011;41041;43.162;20.538;2023-06-14T13:31:28;7.45;;;4.00;;
55150;SDS011;41041;43.162;20.538;2023-06-14T13:33:57;5.78;;;3.60;;
55150;SDS011;41041;43.162;20.538;2023-06-14T13:36:23;15.02;;;4.15;;
55150;SDS011;41041;43.162;20.538;2023-06-14T13:38:49;8.82;;;4.00;;
55150;SDS011;41041;43.162;20.538;2023-06-14T13:41:16;7.07;;;3.78;;
55150;SDS011;41041;43.162;20.538;2023-06-14T13:43:42;15.45;;;4.07;;
55150;SDS011;41041;43.162;20.538;2023-06-14T13:46:16;10.45;;;4.03;;
55150;SDS011;41041;43.162;20.538;2023-06-14T13:48:42;8.55;;;3.58;;
55150;SDS011;41041;43.162;20.538;2023-06-14T13:51:08;9.93;;;3.58;;
55150;SDS011;41041;43.162;20.538;2023-06-14T13:53:36;10.27;;;3.70;;
55150;SDS011;41041;43.162;20.538;2023-06-14T13:56:03;8.70;;;3.58;;
55150;SDS011;41041;43.162;20.538;2023-06-14T13:58:32;9.23;;;3.53;;
55150;SDS011;41041;43.162;20.538;2023-06-14T14:00:58;7.95;;;3.83;;
55150;SDS011;41041;43.162;20.538;2023-06-14T14:03:24;7.53;;;3.63;;
55150;SDS011;41041;43.162;20.538;2023-06-14T14:05:50;8.95;;;4.10;;
55150;SDS011;41041;43.162;20.538;2023-06-14T14:08:16;7.32;;;3.60;;
55150;SDS011;41041;43.162;20.538;2023-06-14T14:10:43;11.45;;;3.83;;
55150;SDS011;41041;43.162;20.538;2023-06-14T14:13:09;4.88;;;3.30;;
55150;SDS011;41041;43.162;20.538;2023-06-14T14:15:40;13.60;;;3.88;;
55150;SDS011;41041;43.162;20.538;2023-06-14T14:18:06;9.13;;;3.20;;
55150;SDS011;41041;43.162;20.538;2023-06-14T14:20:32;6.63;;;3.63;;
55150;SDS011;41041;43.162;20.538;2023-06-14T14:22:59;12.13;;;4.60;;
55150;SDS011;41041;43.162;20.538;2023-06-14T14:25:24;9.55;;;4.43;;
55150;SDS011;41041;43.162;20.538;2023-06-14T14:30:20;7.53;;;4.55;;
55150;SDS011;41041;43.162;20.538;2023-06-14T14:32:51;9.00;;;4.35;;
55150;SDS011;41041;43.162;20.538;2023-06-14T14:35:17;10.15;;;3.67;;
55150;SDS011;41041;43.162;20.538;2023-06-14T14:37:44;8.10;;;3.70;;
55150;SDS011;41041;43.162;20.538;2023-06-14T14:40:10;4.68;;;2.63;;
55150;SDS011;41041;43.162;20.538;2023-06-14T14:42:36;7.03;;;2.70;;
55150;SDS011;41041;43.162;20.538;2023-06-14T14:45:14;5.55;;;2.28;;
55150;SDS011;41041;43.162;20.538;2023-06-14T14:47:41;4.45;;;2.20;;
55150;SDS011;41041;43.162;20.538;2023-06-14T14:50:06;2.40;;;1.85;;
55150;SDS011;41041;43.162;20.538;2023-06-14T14:52:36;6.05;;;2.53;;
55150;SDS011;41041;43.162;20.538;2023-06-14T14:55:03;4.13;;;2.38;;
55150;SDS011;41041;43.162;20.538;2023-06-14T14:57:29;6.30;;;2.70;;
55150;SDS011;41041;43.162;20.538;2023-06-14T14:59:56;4.75;;;2.17;;
55150;SDS011;41041;43.162;20.538;2023-06-14T15:02:22;3.80;;;2.28;;
55150;SDS011;41041;43.162;20.538;2023-06-14T15:04:49;3.38;;;2.42;;
55150;SDS011;41041;43.162;20.538;2023-06-14T15:07:17;5.63;;;2.45;;
55150;SDS011;41041;43.162;20.538;2023-06-14T15:09:44;4.38;;;2.30;;
55150;SDS011;41041;43.162;20.538;2023-06-14T15:12:10;5.32;;;1.92;;
55150;SDS011;41041;43.162;20.538;2023-06-14T15:14:36;2.97;;;2.17;;
55150;SDS011;41041;43.162;20.538;2023-06-14T15:17:02;4.35;;;2.20;;
55150;SDS011;41041;43.162;20.538;2023-06-14T15:19:28;4.50;;;2.45;;
55150;SDS011;41041;43.162;20.538;2023-06-14T15:21:54;3.63;;;2.60;;
55150;SDS011;41041;43.162;20.538;2023-06-14T15:24:25;4.80;;;2.50;;
55150;SDS011;41041;43.162;20.538;2023-06-14T15:26:51;4.03;;;2.40;;
55150;SDS011;41041;43.162;20.538;2023-06-14T15:29:17;8.07;;;3.03;;
55150;SDS011;41041;43.162;20.538;2023-06-14T15:31:43;6.22;;;2.05;;
55150;SDS011;41041;43.162;20.538;2023-06-14T15:34:09;7.75;;;2.80;;
55150;SDS011;41041;43.162;20.538;2023-06-14T15:36:35;4.15;;;2.13;;
55150;SDS011;41041;43.162;20.538;2023-06-14T15:39:01;6.45;;;2.15;;
55150;SDS011;41041;43.162;20.538;2023-06-14T15:41:27;5.57;;;2.00;;
55150;SDS011;41041;43.162;20.538;2023-06-14T15:46:25;3.17;;;2.05;;
55150;SDS011;41041;43.162;20.538;2023-06-14T15:48:51;6.97;;;2.10;;
55150;SDS011;41041;43.162;20.538;2023-06-14T15:51:23;3.33;;;2.03;;
55150;SDS011;41041;43.162;20.538;2023-06-14T15:53:49;2.90;;;1.75;;
55150;SDS011;41041;43.162;20.538;2023-06-14T15:56:17;8.13;;;1.90;;
55150;SDS011;41041;43.162;20.538;2023-06-14T15:58:43;3.72;;;2.05;;
55150;SDS011;41041;43.162;20.538;2023-06-14T16:01:09;3.55;;;2.30;;
55150;SDS011;41041;43.162;20.538;2023-06-14T16:03:35;4.10;;;2.00;;
55150;SDS011;41041;43.162;20.538;2023-06-14T16:06:01;97.63;;;44.85;;
55150;SDS011;41041;43.162;20.538;2023-06-14T16:08:37;6.45;;;3.55;;
55150;SDS011;41041;43.162;20.538;2023-06-14T16:14:07;4.28;;;2.45;;
55150;SDS011;41041;43.162;20.538;2023-06-14T16:16:33;5.55;;;3.05;;
55150;SDS011;41041;43.162;20.538;2023-06-14T16:18:59;5.70;;;3.00;;
55150;SDS011;41041;43.162;20.538;2023-06-14T16:21:25;4.57;;;2.72;;
55150;SDS011;41041;43.162;20.538;2023-06-14T16:23:51;6.28;;;3.10;;
55150;SDS011;41041;43.162;20.538;2023-06-14T16:26:17;7.95;;;3.38;;
55150;SDS011;41041;43.162;20.538;2023-06-14T16:28:43;7.65;;;4.88;;
55150;SDS011;41041;43.162;20.538;2023-06-14T16:31:11;5.50;;;2.10;;
55150;SDS011;41041;43.162;20.538;2023-06-14T16:33:39;6.47;;;4.40;;
55150;SDS011;41041;43.162;20.538;2023-06-14T16:36:05;8.25;;;4.45;;
55150;SDS011;41041;43.162;20.538;2023-06-14T16:38:32;5.63;;;3.00;;
55150;SDS011;41041;43.162;20.538;2023-06-14T16:40:58;5.45;;;2.85;;
55150;SDS011;41041;43.162;20.538;2023-06-14T16:43:24;6.38;;;3.00;;
55150;SDS011;41041;43.162;20.538;2023-06-14T16:45:51;4.55;;;2.50;;
55150;SDS011;41041;43.162;20.538;2023-06-14T16:51:12;6.30;;;3.00;;
55150;SDS011;41041;43.162;20.538;2023-06-14T16:53:46;6.18;;;2.80;;
55150;SDS011;41041;43.162;20.538;2023-06-14T16:56:15;6.10;;;2.20;;
55150;SDS011;41041;43.162;20.538;2023-06-14T16:58:42;5.18;;;2.72;;
55150;SDS011;41041;43.162;20.538;2023-06-14T17:01:12;3.60;;;2.60;;
55150;SDS011;41041;43.162;20.538;2023-06-14T17:04:00;5.88;;;2.90;;
55150;SDS011;41041;43.162;20.538;2023-06-14T17:06:46;4.35;;;2.47;;
55150;SDS011;41041;43.162;20.538;2023-06-14T17:09:13;4.00;;;2.38;;
55150;SDS011;41041;43.162;20.538;2023-06-14T17:11:43;6.28;;;3.00;;
55150;SDS011;41041;43.162;20.538;2023-06-14T17:14:11;5.38;;;2.88;;
55150;SDS011;41041;43.162;20.538;2023-06-14T17:16:43;4.95;;;2.95;;
55150;SDS011;41041;43.162;20.538;2023-06-14T17:25:28;5.57;;;3.05;;
55150;SDS011;41041;43.162;20.538;2023-06-14T17:39:54;3.47;;;1.98;;
55150;SDS011;41041;43.162;20.538;2023-06-14T17:57:45;3.90;;;1.98;;
55150;SDS011;41041;43.162;20.538;2023-06-14T18:00:34;5.07;;;2.20;;
55150;SDS011;41041;43.162;20.538;2023-06-14T18:12:56;5.30;;;2.28;;
55150;SDS011;41041;43.162;20.538;2023-06-14T18:21:49;8.20;;;2.50;;